Airfield :
LOGIN :

Register | Disclaimer

   EN    FR    IT 

 










Legend :    VFR   Marginal VFR   IFR   Intensive IFR   Very Intensive IFR
Visi :
Ceiling :
>= 8 km
>= 3000ft
5 to 8 km
1000 to 3000 ft
1500m to 5 km
500 to 1000 ft
800 to 1500m
200 to 500 ft
< 800m
< 200 ft
Symbols :   Thunderstorms  Fog  Heavy snow  Heavy precipitations  Wind > 20 kt
SIGMETs :     Misc.  Thunderstorms  Icing  Turbulence  Mountain Waves  Volcanic Ashes






- Airport Elevation : 179 ft


LIPI - Rivolto AFB Udine

CURRENT METAR :
  • 130855Z 03003KT 4500 -RA BR FEW015 SCT020 BKN030 02/M00 Q0994 RMK OVC VIS MIN 4500 WIND THR06 06004KT WIND THR24 06005KT GRN

EXPIRED METARs :
  • 130755Z 35004KT 3000 BR BKN020 SCT030 02/M00 Q0995 RMK OVC VIS MIN 2500S WIND THR06 03006KT WIND THR24 02004KT YLO
  • 130726Z 36002KT 2500 BR BKN025 SCT030 02/M01 Q0996 RMK OVC VIS MIN 2500 WIND THR06 04003KT WIND THR24 03002KT YLO
  • 130655Z 27002KT 3000 BR BKN025 SCT030 01/M01 Q0996 RMK OVC VIS MIN 3000 WIND THR06 29002KT WIND THR24 32002KT YLO

TAF TAF LIPI
Valid from the 13 at 09:00 until the 13 at 18:00 UTC


130800Z 1309/1318 35005KT 3000 RA BR SCT020 BKN030
TEMPO 1309/1313 04010KT 1000 SNRA SCT010 BKN015



MET'MAP, your aeronautical weather chart ! - Copyright ORBIFLY December 2007 - Disclaimer

ORBIFLY MET'MAP TEAM :

Programming & Development : Alexandra Zaïnal
Concept & original design : Baudouin d'Aumeries
Assistance for programming : Marc-Olivier Méhu
Technical & hardware support : Manuel Goepfert

Contact : metmap@orbifly.com




SOURCES & CREDITS :

   NOAA